createdAt,value
2019-01-27T00:06:34.398Z,4.88
2019-01-27T00:09:23.379Z,4.34
2019-01-27T00:12:11.035Z,4.23
2019-01-27T00:14:58.581Z,4.17
2019-01-27T00:17:49.332Z,4.14
2019-01-27T00:20:37.080Z,4.13
2019-01-27T00:23:26.442Z,4.13
2019-01-27T00:26:14.711Z,4.13
2019-01-27T00:29:04.145Z,4.11
2019-01-27T00:31:53.221Z,4.08
2019-01-27T00:34:41.009Z,4.05
2019-01-27T00:37:29.701Z,4.04
2019-01-27T01:14:43.888Z,4.00
2019-01-27T01:17:32.989Z,4.02
2019-01-27T01:20:20.956Z,4.03
2019-01-27T01:26:17.881Z,4.07
2019-01-27T01:29:05.664Z,4.07
2019-01-27T01:38:23.310Z,4.05
2019-01-27T01:41:11.651Z,4.02
2019-01-27T01:44:00.664Z,3.99
2019-01-27T01:49:54.684Z,3.86
2019-01-27T01:52:42.313Z,3.82
2019-01-27T02:11:06.868Z,3.71
2019-01-27T02:13:55.738Z,3.71
2019-01-27T02:20:07.605Z,4.50
2019-01-27T02:22:55.342Z,4.01
2019-01-27T02:25:43.289Z,3.96
2019-01-27T02:28:37.484Z,3.94
2019-01-27T02:31:25.004Z,3.95
2019-01-27T02:34:13.081Z,4.72
2019-01-27T02:37:03.098Z,4.22
2019-01-27T02:39:55.808Z,4.11
2019-01-27T02:42:43.733Z,4.08
2019-01-27T02:45:34.169Z,4.04
2019-01-27T02:48:24.102Z,4.01
2019-01-27T02:51:29.452Z,4.00
2019-01-27T02:54:16.999Z,3.99
2019-01-27T02:57:04.861Z,3.97
2019-01-27T02:59:52.878Z,3.96
2019-01-27T03:02:40.295Z,3.96
2019-01-27T03:05:43.360Z,3.98
2019-01-27T03:08:31.140Z,3.97
2019-01-27T03:24:00.083Z,4.15
2019-01-27T03:26:48.094Z,4.15
2019-01-27T03:32:51.791Z,4.16
2019-01-27T03:35:39.430Z,4.14
2019-01-27T03:38:27.980Z,4.13
2019-01-27T04:24:43.193Z,4.29
2019-01-27T05:20:24.813Z,4.03
2019-01-27T05:23:12.438Z,4.03
2019-01-27T05:26:00.076Z,4.05
2019-01-27T05:38:13.063Z,4.11
2019-01-27T05:41:04.480Z,4.86
2019-01-27T05:43:52.042Z,4.38
2019-01-27T05:56:02.946Z,4.19
2019-01-27T05:58:50.897Z,4.20
2019-01-27T06:01:38.767Z,4.22
2019-01-27T06:04:26.242Z,4.25
2019-01-27T06:07:14.343Z,4.27
2019-01-27T06:10:19.393Z,4.31
2019-01-27T06:13:15.066Z,4.31
2019-01-27T06:31:48.264Z,4.48
2019-01-27T06:34:37.459Z,4.49
2019-01-27T06:37:25.827Z,4.49
2019-01-27T06:40:17.428Z,4.48
2019-01-27T07:08:25.818Z,4.43
2019-01-27T07:24:40.182Z,4.47
2019-01-27T07:27:31.021Z,4.51
2019-01-27T07:56:14.651Z,5.31
2019-01-27T08:02:31.701Z,5.14
2019-01-27T08:05:24.347Z,5.95
2019-01-27T08:08:20.718Z,5.39
2019-01-27T08:11:13.403Z,5.28
2019-01-27T08:14:19.358Z,5.26
2019-01-27T08:23:32.340Z,5.26
2019-01-27T08:26:20.009Z,5.32
2019-01-27T08:29:17.223Z,5.34
2019-01-27T08:32:12.604Z,6.23
2019-01-27T08:35:05.527Z,5.72
2019-01-27T08:57:07.443Z,6.81
2019-01-27T09:12:51.277Z,7.26
2019-01-27T09:15:40.129Z,6.56
2019-01-27T09:21:53.552Z,6.22
2019-01-27T09:24:40.863Z,6.12
2019-01-27T09:27:32.073Z,6.04
2019-01-27T10:05:31.172Z,6.59
2019-01-27T10:08:25.759Z,6.61
2019-01-27T10:11:13.737Z,7.62
2019-01-27T10:14:05.466Z,6.97
2019-01-27T10:16:56.366Z,6.96
2019-01-27T10:19:43.826Z,7.03
2019-01-27T10:22:40.632Z,7.03
2019-01-27T10:32:03.327Z,6.76
2019-01-27T10:47:52.687Z,7.15
2019-01-27T11:10:22.062Z,7.40
2019-01-27T11:13:09.546Z,7.49
2019-01-27T11:19:48.982Z,7.67
2019-01-27T11:26:00.770Z,8.97
2019-01-27T11:28:45.797Z,9.27
2019-01-27T11:34:47.583Z,8.84
2019-01-27T11:37:35.806Z,8.68
2019-01-27T12:18:21.927Z,8.88
2019-01-27T12:21:09.430Z,9.93
2019-01-27T12:23:57.048Z,9.15
2019-01-27T12:26:46.029Z,9.07
2019-01-27T12:29:34.413Z,9.03
2019-01-27T12:32:23.218Z,9.01
2019-01-27T12:35:14.785Z,8.88
2019-01-27T12:38:03.868Z,8.71
2019-01-27T12:47:07.918Z,8.35
2019-01-27T12:49:55.445Z,8.31
2019-01-27T12:52:42.713Z,8.29
2019-01-27T12:58:43.070Z,8.19
2019-01-27T13:01:30.504Z,8.12
2019-01-27T13:04:18.245Z,8.03
2019-01-27T13:32:15.338Z,8.02
2019-01-27T13:35:03.650Z,8.07
2019-01-27T13:37:50.851Z,9.07
2019-01-27T13:40:38.700Z,8.41
2019-01-27T13:43:27.819Z,8.27
2019-01-27T13:46:24.052Z,8.20
2019-01-27T13:49:12.410Z,8.16
2019-01-27T13:52:00.633Z,8.11
2019-01-27T13:54:52.437Z,8.06
2019-01-27T13:57:39.949Z,8.04
2019-01-27T14:00:44.770Z,8.04
2019-01-27T14:03:32.804Z,8.00
2019-01-27T14:06:21.312Z,7.95
2019-01-27T14:09:08.773Z,7.91
2019-01-27T14:24:36.987Z,7.72
2019-01-27T14:27:24.870Z,7.71
2019-01-27T14:30:13.266Z,8.64
2019-01-27T14:33:16.872Z,8.04
2019-01-27T14:36:04.567Z,7.92
2019-01-27T14:38:53.137Z,8.79
2019-01-27T14:44:49.320Z,8.89
2019-01-27T15:09:39.078Z,8.64
2019-01-27T15:12:28.880Z,7.89
2019-01-27T15:15:21.833Z,7.68
2019-01-27T15:18:10.426Z,7.54
2019-01-27T15:21:02.726Z,7.38
2019-01-27T15:23:50.555Z,7.26
2019-01-27T15:26:47.278Z,7.11
2019-01-27T15:45:26.606Z,6.71
2019-01-27T15:48:14.665Z,6.58
2019-01-27T15:51:03.696Z,7.34
2019-01-27T15:53:51.839Z,6.75
2019-01-27T15:56:40.160Z,7.42
2019-01-27T15:59:32.809Z,6.81
2019-01-27T16:02:25.231Z,6.63
2019-01-27T16:05:10.553Z,6.54
2019-01-27T16:08:01.720Z,6.44
2019-01-27T16:17:15.390Z,6.48
2019-01-27T16:20:08.812Z,6.28
2019-01-27T16:23:15.108Z,6.17
2019-01-27T16:26:03.333Z,6.06
2019-01-27T16:28:50.845Z,6.00
2019-01-27T16:31:43.191Z,5.96
2019-01-27T16:40:47.443Z,6.10
2019-01-27T16:46:50.019Z,5.96
2019-01-27T16:52:44.884Z,5.93
2019-01-27T16:55:41.781Z,6.62
2019-01-27T17:01:45.052Z,5.95
2019-01-27T17:04:35.146Z,5.87
2019-01-27T17:07:33.656Z,5.80
2019-01-27T17:10:27.880Z,5.70
2019-01-27T17:13:16.820Z,5.63
2019-01-27T17:22:27.159Z,5.36
2019-01-27T17:25:15.787Z,6.05
2019-01-27T17:28:08.995Z,5.45
2019-01-27T17:30:57.283Z,6.09
2019-01-27T17:39:25.554Z,5.21
2019-01-27T17:42:13.594Z,5.16
2019-01-27T17:45:04.720Z,5.89
2019-01-27T17:48:01.078Z,5.34
2019-01-27T17:50:47.012Z,5.22
2019-01-27T17:53:37.748Z,5.14
2019-01-27T18:15:48.681Z,4.99
2019-01-27T18:24:55.509Z,4.87
2019-01-27T18:27:43.574Z,4.82
2019-01-27T18:30:31.392Z,4.76
2019-01-27T18:33:19.371Z,4.73
2019-01-27T18:36:09.971Z,5.41
2019-01-27T18:38:59.263Z,4.90
2019-01-27T18:48:11.349Z,4.60
2019-01-27T18:51:00.008Z,5.31
2019-01-27T18:53:47.980Z,4.76
2019-01-27T18:56:46.991Z,4.61
2019-01-27T18:59:52.153Z,4.51
2019-01-27T19:02:45.965Z,4.43
2019-01-27T19:05:40.162Z,5.16
2019-01-27T19:08:46.537Z,4.65
2019-01-27T19:11:34.166Z,4.55
2019-01-27T19:14:25.943Z,4.53
2019-01-27T19:17:17.913Z,4.52
2019-01-27T19:20:34.783Z,4.53
2019-01-27T19:23:27.477Z,4.52
2019-01-27T19:26:15.252Z,4.51
2019-01-27T19:29:07.237Z,4.51
2019-01-27T19:32:03.140Z,4.51
2019-01-27T19:34:56.890Z,4.51
2019-01-27T19:41:15.258Z,4.46
2019-01-27T19:44:27.536Z,4.47
2019-01-27T19:47:31.649Z,4.45
2019-01-27T19:50:22.205Z,4.45
2019-01-27T19:56:54.394Z,4.47
2019-01-27T19:59:42.397Z,4.46
2019-01-27T20:02:33.394Z,4.47
2019-01-27T20:05:34.683Z,4.46
2019-01-27T20:08:32.633Z,4.44
2019-01-27T20:11:35.345Z,4.42
2019-01-27T20:14:26.927Z,5.14
2019-01-27T20:17:20.397Z,5.37
2019-01-27T20:20:08.360Z,4.76
2019-01-27T20:23:00.177Z,4.61
2019-01-27T20:25:47.681Z,4.52
2019-01-27T20:28:52.049Z,4.44
2019-01-27T20:31:39.962Z,4.37
2019-01-27T20:34:32.471Z,4.31
2019-01-27T20:37:23.788Z,4.26
2019-01-27T20:40:13.474Z,4.21
2019-01-27T20:43:04.377Z,4.18
2019-01-27T20:45:54.995Z,4.17
2019-01-27T20:48:59.217Z,4.18
2019-01-27T20:51:50.993Z,4.19
2019-01-27T20:54:41.623Z,4.22
2019-01-27T20:57:32.398Z,4.24
2019-01-27T21:00:26.102Z,4.25
2019-01-27T21:03:19.543Z,4.25
2019-01-27T21:06:07.374Z,4.24
2019-01-27T21:09:07.327Z,4.25
2019-01-27T21:12:10.753Z,4.24
2019-01-27T21:15:03.858Z,4.24
2019-01-27T21:17:59.103Z,4.24
2019-01-27T21:20:53.684Z,4.23
2019-01-27T21:23:37.121Z,4.21
2019-01-27T21:26:31.013Z,4.19
2019-01-27T21:29:19.917Z,4.93
2019-01-27T21:32:09.206Z,4.42
2019-01-27T21:34:57.623Z,4.31
2019-01-27T21:37:45.607Z,4.25
2019-01-27T21:40:34.478Z,4.23
2019-01-27T21:43:25.646Z,4.23
2019-01-27T21:46:13.569Z,4.22
2019-01-27T21:49:11.896Z,4.23
2019-01-27T21:52:00.148Z,4.25
2019-01-27T21:54:47.829Z,4.26
2019-01-27T21:57:35.827Z,4.29
2019-01-27T22:00:23.216Z,4.31
2019-01-27T22:03:12.574Z,4.32
2019-01-27T22:06:00.523Z,4.34
2019-01-27T22:08:48.402Z,4.35
2019-01-27T22:11:37.934Z,4.36
2019-01-27T22:14:26.958Z,4.37
2019-01-27T22:17:24.725Z,4.38
2019-01-27T22:20:28.598Z,4.39
2019-01-27T22:23:17.051Z,4.39
2019-01-27T22:26:06.335Z,4.40
2019-01-27T22:28:53.862Z,4.41
2019-01-27T22:31:41.909Z,4.43
2019-01-27T22:34:30.556Z,4.44
2019-01-27T22:37:20.688Z,4.44
2019-01-27T22:40:10.737Z,4.45
2019-01-27T22:43:01.559Z,5.23
2019-01-27T22:45:50.728Z,4.74
2019-01-27T22:48:39.181Z,4.63
2019-01-27T22:51:44.424Z,4.57
2019-01-27T22:54:33.581Z,5.35
2019-01-27T23:00:36.023Z,4.62
2019-01-27T23:12:50.218Z,4.42
2019-01-27T23:18:45.772Z,4.38
2019-01-27T23:24:49.694Z,4.38
2019-01-27T23:27:48.334Z,4.41
2019-01-27T23:30:40.643Z,4.42
2019-01-27T23:33:30.756Z,5.26
2019-01-27T23:36:20.377Z,5.54
2019-01-27T23:39:10.183Z,5.75
2019-01-27T23:42:07.668Z,5.12
2019-01-27T23:44:57.251Z,4.96
2019-01-27T23:47:47.172Z,5.70
2019-01-27T23:50:35.989Z,5.10
2019-01-27T23:53:25.873Z,5.80
2019-01-27T23:56:13.784Z,5.17
2019-01-27T23:59:01.805Z,5.86
